Time,TemperatureF,DewpointF,PressureIn,WindDirection,WindDirectionDegrees,WindSpeedMPH,WindSpeedGustMPH,Humidity,HourlyPrecipIn,Conditions,Clouds,dailyrainin,SoftwareType,DateUTC
2013-12-20 00:12:00,30.0,19.0,-100.00,West,280,3.0,5.0,62,-99.99,,,-99.99,,2013-12-20 00:12:00,
2013-12-20 00:21:00,31.0,18.0,-100.00,NW,319,5.0,8.0,58,-99.99,,,-99.99,,2013-12-20 00:21:00,
2013-12-20 00:42:00,31.0,18.0,-100.00,NNE,30,3.0,4.0,58,-99.99,,,-99.99,,2013-12-20 00:42:00,
2013-12-20 00:52:00,31.0,18.0,-100.00,NNE,30,3.0,4.0,58,-99.99,,,-99.99,,2013-12-20 00:52:00,
2013-12-20 01:01:00,31.0,18.0,-100.00,NNE,30,3.0,4.0,58,-99.99,,,-99.99,,2013-12-20 01:01:00,
2013-12-20 01:21:00,30.0,19.0,-100.00,ESE,121,3.0,4.0,62,-99.99,,,-99.99,,2013-12-20 01:21:00,
2013-12-20 01:42:00,29.0,18.0,-100.00,ESE,103,6.0,7.0,64,-99.99,,,-99.99,,2013-12-20 01:42:00,
2013-12-20 02:11:00,28.0,16.0,-100.00,East,85,5.0,8.0,59,-99.99,,,-99.99,,2013-12-20 02:11:00,
2013-12-20 02:21:00,29.0,15.0,-100.00,ESE,121,4.0,5.0,55,-99.99,,,-99.99,,2013-12-20 02:21:00,
2013-12-20 02:32:00,29.0,15.0,-100.00,ESE,121,4.0,5.0,55,-99.99,,,-99.99,,2013-12-20 02:32:00,
2013-12-20 02:42:00,29.0,15.0,-100.00,ESE,121,4.0,5.0,55,-99.99,,,-99.99,,2013-12-20 02:42:00,
2013-12-20 02:52:00,28.0,14.0,-100.00,East,97,5.0,6.0,56,-99.99,,,-99.99,,2013-12-20 02:52:00,
2013-12-20 03:02:00,28.0,14.0,-100.00,East,97,5.0,6.0,56,-99.99,,,-99.99,,2013-12-20 03:02:00,
2013-12-20 03:22:00,27.0,15.0,-100.00,ESE,116,3.0,5.0,59,-99.99,,,-99.99,,2013-12-20 03:22:00,
2013-12-20 03:44:00,27.0,13.0,-100.00,ENE,73,3.0,3.0,56,-99.99,,,-99.99,,2013-12-20 03:44:00,
2013-12-20 03:53:00,27.0,13.0,-100.00,ENE,73,3.0,3.0,56,-99.99,,,-99.99,,2013-12-20 03:53:00,
2013-12-20 04:23:00,26.0,14.0,-100.00,North,-999,0.0,1.0,59,-99.99,,,-99.99,,2013-12-20 04:23:00,
2013-12-20 04:42:00,25.0,13.0,-100.00,North,-999,0.0,0.0,59,-99.99,,,-99.99,,2013-12-20 04:42:00,
2013-12-20 05:12:00,25.0,13.0,-100.00,North,-999,0.0,1.0,61,-99.99,,,-99.99,,2013-12-20 05:12:00,
2013-12-20 05:22:00,26.0,14.0,-100.00,North,-999,0.0,0.0,61,-99.99,,,-99.99,,2013-12-20 05:22:00,
2013-12-20 05:43:00,25.0,11.0,-100.00,NNE,21,4.0,7.0,55,-99.99,,,-99.99,,2013-12-20 05:43:00,
2013-12-20 05:53:00,25.0,11.0,-100.00,NNE,21,4.0,7.0,55,-99.99,,,-99.99,,2013-12-20 05:53:00,
2013-12-20 06:02:00,25.0,11.0,-100.00,NNE,21,4.0,7.0,55,-99.99,,,-99.99,,2013-12-20 06:02:00,
2013-12-20 06:43:00,24.0,10.0,-100.00,North,-999,0.0,1.0,55,-99.99,,,-99.99,,2013-12-20 06:43:00,
2013-12-20 07:12:00,23.0,8.0,-100.00,NNE,13,2.0,2.0,51,-99.99,,,-99.99,,2013-12-20 07:12:00,
2013-12-20 07:22:00,21.0,7.0,-100.00,North,-999,0.0,1.0,54,-99.99,,,-99.99,,2013-12-20 07:22:00,
2013-12-20 07:42:00,19.0,8.0,-100.00,North,-999,0.0,1.0,62,-99.99,,,-99.99,,2013-12-20 07:42:00,
2013-12-20 07:52:00,19.0,8.0,-100.00,North,-999,0.0,1.0,62,-99.99,,,-99.99,,2013-12-20 07:52:00,
2013-12-20 08:02:00,19.0,8.0,-100.00,North,-999,0.0,1.0,62,-99.99,,,-99.99,,2013-12-20 08:02:00,
2013-12-20 16:53:00,8.0,-1.0,-100.00,ESE,113,2.0,3.0,65,-99.99,,,-99.99,,2013-12-20 16:53:00,
2013-12-20 17:02:00,8.0,-1.0,-100.00,ESE,113,2.0,3.0,65,-99.99,,,-99.99,,2013-12-20 17:02:00,
2013-12-20 18:12:00,16.0,3.0,-100.00,WNW,292,1.0,3.0,57,-99.99,,,-99.99,,2013-12-20 18:12:00,
2013-12-20 18:22:00,17.0,4.0,-100.00,North,10,2.0,3.0,56,-99.99,,,-99.99,,2013-12-20 18:22:00,
2013-12-20 18:32:00,17.0,4.0,-100.00,North,10,2.0,3.0,56,-99.99,,,-99.99,,2013-12-20 18:32:00,
2013-12-20 18:42:00,17.0,4.0,-100.00,North,10,2.0,3.0,56,-99.99,,,-99.99,,2013-12-20 18:42:00,
2013-12-20 18:52:00,19.0,5.0,-100.00,North,6,2.0,4.0,54,-99.99,,,-99.99,,2013-12-20 18:52:00,
2013-12-20 19:02:00,19.0,5.0,-100.00,North,6,2.0,4.0,54,-99.99,,,-99.99,,2013-12-20 19:02:00,
2013-12-20 20:11:00,24.0,8.0,-100.00,SW,234,2.0,3.0,49,-99.99,,,-99.99,,2013-12-20 20:11:00,
2013-12-20 20:21:00,25.0,10.0,-100.00,WSW,254,3.0,3.0,52,-99.99,,,-99.99,,2013-12-20 20:21:00,
2013-12-20 20:42:00,26.0,9.0,-100.00,WSW,246,3.0,5.0,49,-99.99,,,-99.99,,2013-12-20 20:42:00,
2013-12-20 20:52:00,26.0,9.0,-100.00,WSW,246,3.0,5.0,49,-99.99,,,-99.99,,2013-12-20 20:52:00,
2013-12-20 21:02:00,26.0,9.0,-100.00,WSW,246,3.0,5.0,49,-99.99,,,-99.99,,2013-12-20 21:02:00,
2013-12-20 21:22:00,28.0,11.0,-100.00,West,271,3.0,5.0,49,-99.99,,,-99.99,,2013-12-20 21:22:00,
2013-12-20 21:33:00,28.0,11.0,-100.00,West,271,3.0,5.0,49,-99.99,,,-99.99,,2013-12-20 21:33:00,
2013-12-20 21:43:00,28.0,11.0,-100.00,West,271,3.0,5.0,49,-99.99,,,-99.99,,2013-12-20 21:43:00,
2013-12-20 21:53:00,29.0,11.0,-100.00,WSW,251,2.0,3.0,46,-99.99,,,-99.99,,2013-12-20 21:53:00,
2013-12-20 22:03:00,29.0,11.0,-100.00,WSW,251,2.0,3.0,46,-99.99,,,-99.99,,2013-12-20 22:03:00,
2013-12-20 22:23:00,31.0,12.0,-100.00,South,184,1.0,2.0,44,-99.99,,,-99.99,,2013-12-20 22:23:00,
2013-12-20 22:43:00,32.0,14.0,-100.00,WNW,285,3.0,5.0,47,-99.99,,,-99.99,,2013-12-20 22:43:00,
2013-12-20 23:12:00,31.0,12.0,-100.00,West,260,2.0,5.0,45,-99.99,,,-99.99,,2013-12-20 23:12:00,
2013-12-20 23:22:00,31.0,13.0,-100.00,SW,229,1.0,3.0,47,-99.99,,,-99.99,,2013-12-20 23:22:00,
2013-12-20 23:33:00,31.0,13.0,-100.00,SW,229,1.0,3.0,47,-99.99,,,-99.99,,2013-12-20 23:33:00,
2013-12-20 23:42:00,31.0,13.0,-100.00,SW,229,1.0,3.0,47,-99.99,,,-99.99,,2013-12-20 23:42:00,
2013-12-20 23:53:00,31.0,14.0,-100.00,WSW,251,1.0,2.0,49,-99.99,,,-99.99,,2013-12-20 23:53:00,